createdAt,value
2022-08-25T00:00:28.878Z,18.98
2022-08-25T00:02:58.770Z,18.96
2022-08-25T00:05:32.552Z,18.91
2022-08-25T00:08:03.746Z,18.93
2022-08-25T00:10:37.821Z,18.92
2022-08-25T00:13:07.703Z,18.84
2022-08-25T00:15:38.372Z,18.86
2022-08-25T00:18:16.958Z,18.89
2022-08-25T00:20:49.657Z,18.96
2022-08-25T00:23:19.182Z,18.90
2022-08-25T00:25:51.402Z,18.87
2022-08-25T00:28:21.140Z,18.92
2022-08-25T00:30:50.768Z,18.86
2022-08-25T00:33:20.881Z,18.81
2022-08-25T00:35:50.569Z,18.87
2022-08-25T00:38:20.078Z,18.84
2022-08-25T00:41:06.058Z,18.83
2022-08-25T00:43:40.102Z,18.87
2022-08-25T00:46:10.204Z,18.80
2022-08-25T00:48:42.283Z,18.76
2022-08-25T00:51:15.821Z,18.70
2022-08-25T00:53:46.475Z,18.66
2022-08-25T00:56:18.859Z,18.68
2022-08-25T00:58:51.132Z,18.63
2022-08-25T01:01:21.058Z,18.60
2022-08-25T01:03:50.750Z,18.65
2022-08-25T01:06:20.475Z,18.60
2022-08-25T01:08:50.178Z,18.59
2022-08-25T01:11:22.469Z,18.47
2022-08-25T01:13:55.616Z,18.45
2022-08-25T01:16:25.553Z,18.37
2022-08-25T01:18:57.133Z,18.43
2022-08-25T01:21:31.603Z,18.45
2022-08-25T01:24:02.862Z,18.38
2022-08-25T01:26:34.190Z,18.42
2022-08-25T01:29:19.419Z,18.38
2022-08-25T01:31:49.790Z,18.34
2022-08-25T01:34:21.381Z,18.17
2022-08-25T01:36:53.729Z,18.21
2022-08-25T01:39:23.834Z,18.16
2022-08-25T01:42:02.604Z,18.05
2022-08-25T01:44:32.387Z,18.01
2022-08-25T01:47:01.865Z,18.02
2022-08-25T01:49:31.519Z,18.20
2022-08-25T01:52:05.490Z,18.15
2022-08-25T01:54:35.059Z,18.08
2022-08-25T01:57:04.552Z,17.95
2022-08-25T01:59:34.005Z,17.86
2022-08-25T02:02:04.891Z,17.84
2022-08-25T02:04:35.130Z,17.83
2022-08-25T02:07:10.119Z,17.81
2022-08-25T02:09:41.351Z,17.85
2022-08-25T02:12:12.317Z,17.79
2022-08-25T02:14:41.852Z,17.68
2022-08-25T02:17:11.526Z,17.71
2022-08-25T02:19:40.984Z,17.73
2022-08-25T02:22:13.345Z,17.65
2022-08-25T02:24:42.865Z,17.67
2022-08-25T02:27:12.366Z,17.56
2022-08-25T02:29:41.801Z,17.54
2022-08-25T02:32:13.163Z,17.56
2022-08-25T02:34:42.826Z,17.54
2022-08-25T02:37:15.016Z,17.53
2022-08-25T02:39:44.520Z,17.54
2022-08-25T02:42:14.658Z,17.58
2022-08-25T02:44:44.185Z,17.54
2022-08-25T02:47:13.657Z,17.51
2022-08-25T02:49:43.117Z,17.57
2022-08-25T02:52:15.210Z,17.55
2022-08-25T02:54:44.888Z,17.47
2022-08-25T02:57:15.911Z,17.45
2022-08-25T02:59:48.290Z,17.38
2022-08-25T03:02:18.240Z,17.35
2022-08-25T03:04:47.770Z,17.28
2022-08-25T03:07:20.145Z,17.32
2022-08-25T03:09:51.103Z,17.12
2022-08-25T03:12:20.642Z,17.10
2022-08-25T03:14:50.153Z,17.09
2022-08-25T03:17:19.705Z,17.03
2022-08-25T03:19:49.210Z,16.99
2022-08-25T03:22:21.324Z,16.85
2022-08-25T03:24:50.938Z,16.80
2022-08-25T03:27:17.914Z,16.86
2022-08-25T03:29:48.217Z,16.80
2022-08-25T03:32:18.103Z,16.84
2022-08-25T03:34:47.587Z,16.78
2022-08-25T03:37:17.061Z,16.76
2022-08-25T03:39:49.384Z,16.78
2022-08-25T03:42:18.902Z,16.74
2022-08-25T03:44:49.286Z,16.87
2022-08-25T03:47:19.026Z,16.83
2022-08-25T03:49:48.476Z,16.81
2022-08-25T03:52:18.303Z,16.85
2022-08-25T03:54:50.417Z,16.78
2022-08-25T03:57:20.723Z,16.72
2022-08-25T03:59:50.553Z,16.80
2022-08-25T04:02:20.570Z,16.74
2022-08-25T04:04:50.358Z,16.85
2022-08-25T04:07:20.407Z,16.99
2022-08-25T04:09:52.534Z,17.03
2022-08-25T04:12:22.010Z,16.97
2022-08-25T04:14:52.405Z,16.87
2022-08-25T04:17:22.946Z,16.94
2022-08-25T04:19:52.862Z,16.91
2022-08-25T04:22:22.577Z,16.77
2022-08-25T04:24:55.218Z,16.78
2022-08-25T04:27:24.712Z,16.72
2022-08-25T04:29:54.814Z,16.68
2022-08-25T04:32:24.402Z,16.70
2022-08-25T04:34:54.133Z,16.69
2022-08-25T04:37:23.611Z,16.59
2022-08-25T04:39:55.896Z,16.63
2022-08-25T04:42:27.053Z,16.60
2022-08-25T04:44:56.797Z,16.71
2022-08-25T04:47:26.425Z,16.71
2022-08-25T04:49:57.630Z,16.72
2022-08-25T04:52:27.117Z,16.61
2022-08-25T04:54:59.819Z,16.70
2022-08-25T04:57:29.382Z,16.77
2022-08-25T04:59:58.893Z,16.94
2022-08-25T05:02:28.636Z,17.14
2022-08-25T05:04:58.396Z,17.00
2022-08-25T05:07:28.746Z,16.88
2022-08-25T05:10:00.830Z,16.93
2022-08-25T05:12:31.547Z,17.17
2022-08-25T05:15:22.594Z,17.17
2022-08-25T05:17:55.837Z,17.14
2022-08-25T05:20:25.890Z,17.16
2022-08-25T05:22:55.594Z,17.10
2022-08-25T05:25:27.802Z,17.05
2022-08-25T05:27:57.418Z,17.04
2022-08-25T05:30:27.295Z,17.08
2022-08-25T05:32:57.304Z,17.02
2022-08-25T05:35:26.799Z,16.98
2022-08-25T05:37:57.415Z,17.14
2022-08-25T05:40:29.665Z,17.14
2022-08-25T05:42:59.309Z,17.12
2022-08-25T05:45:29.295Z,17.17
2022-08-25T05:47:58.818Z,17.19
2022-08-25T05:50:28.428Z,17.23
2022-08-25T05:52:57.968Z,17.26
2022-08-25T05:55:30.058Z,17.24
2022-08-25T05:57:59.638Z,17.24
2022-08-25T06:00:29.138Z,17.34
2022-08-25T06:02:56.249Z,17.21
2022-08-25T06:05:29.622Z,17.20
2022-08-25T06:07:59.309Z,17.24
2022-08-25T06:10:31.581Z,17.28
2022-08-25T06:13:01.112Z,17.46
2022-08-25T06:15:31.388Z,17.65
2022-08-25T06:18:03.507Z,17.60
2022-08-25T06:20:34.321Z,17.73
2022-08-25T06:23:03.983Z,17.62
2022-08-25T06:25:36.030Z,17.68
2022-08-25T06:28:06.014Z,17.64
2022-08-25T06:30:35.745Z,17.64
2022-08-25T06:33:05.281Z,17.73
2022-08-25T06:35:34.779Z,17.80
2022-08-25T06:38:05.101Z,17.73
2022-08-25T06:40:37.486Z,17.66
2022-08-25T06:43:08.978Z,17.77
2022-08-25T06:45:38.504Z,17.79
2022-08-25T06:48:08.493Z,17.81
2022-08-25T06:50:38.106Z,18.04
2022-08-25T06:53:07.628Z,17.98
2022-08-25T06:55:39.928Z,17.87
2022-08-25T06:58:11.276Z,17.77
2022-08-25T07:00:41.314Z,17.74
2022-08-25T07:03:10.972Z,17.73
2022-08-25T07:05:43.777Z,17.65
2022-08-25T07:08:13.933Z,17.68
2022-08-25T07:10:48.002Z,17.73
2022-08-25T07:13:18.556Z,17.66
2022-08-25T07:15:48.366Z,17.75
2022-08-25T07:18:17.983Z,17.78
2022-08-25T07:20:47.627Z,17.88
2022-08-25T07:23:17.239Z,18.06
2022-08-25T07:25:49.522Z,17.95
2022-08-25T07:28:20.114Z,17.92
2022-08-25T07:30:51.728Z,18.01
2022-08-25T07:33:21.466Z,17.88
2022-08-25T07:35:48.872Z,17.86
2022-08-25T07:38:20.920Z,17.99
2022-08-25T07:40:54.846Z,18.01
2022-08-25T07:43:26.575Z,17.94
2022-08-25T07:45:56.119Z,18.04
2022-08-25T07:48:25.759Z,18.09
2022-08-25T07:50:55.328Z,18.10
2022-08-25T07:53:25.518Z,17.99
2022-08-25T07:55:57.622Z,18.00
2022-08-25T07:58:27.209Z,18.02
2022-08-25T08:00:56.842Z,17.99
2022-08-25T08:03:44.575Z,17.93
2022-08-25T08:06:18.077Z,17.99
2022-08-25T08:08:49.894Z,18.00
2022-08-25T08:11:23.941Z,17.94
2022-08-25T08:13:54.220Z,17.92
2022-08-25T08:16:25.910Z,17.98
2022-08-25T08:18:55.543Z,17.92
2022-08-25T08:21:27.334Z,18.01
2022-08-25T08:23:59.142Z,17.96
2022-08-25T08:26:55.499Z,18.08
2022-08-25T08:29:22.719Z,18.10
2022-08-25T08:31:52.448Z,18.03
2022-08-25T08:34:24.777Z,18.16
2022-08-25T08:36:54.590Z,18.22
2022-08-25T08:39:24.084Z,18.29
2022-08-25T08:42:22.372Z,18.26
2022-08-25T08:45:02.846Z,18.26
2022-08-25T08:47:41.362Z,18.34
2022-08-25T08:50:24.928Z,18.30
2022-08-25T08:53:01.367Z,18.29
2022-08-25T08:55:33.801Z,18.35
2022-08-25T08:58:08.280Z,18.33
2022-08-25T09:00:43.746Z,18.49
2022-08-25T09:03:30.710Z,18.63
2022-08-25T09:06:03.926Z,18.74
2022-08-25T09:08:36.565Z,18.82
2022-08-25T09:11:22.439Z,18.89
2022-08-25T09:14:11.166Z,19.11
2022-08-25T09:16:57.792Z,19.14
2022-08-25T09:19:56.193Z,19.24
2022-08-25T09:22:38.539Z,19.44
2022-08-25T09:25:18.758Z,19.53
2022-08-25T09:28:01.388Z,19.45
2022-08-25T09:30:39.175Z,19.67
2022-08-25T09:33:09.839Z,19.85
2022-08-25T09:35:42.363Z,20.02
2022-08-25T09:38:14.456Z,20.24
2022-08-25T09:40:46.371Z,20.49
2022-08-25T09:43:24.188Z,20.60
2022-08-25T09:46:02.434Z,20.72
2022-08-25T09:48:39.773Z,20.88
2022-08-25T09:51:21.943Z,21.15
2022-08-25T09:53:56.666Z,21.34
2022-08-25T09:56:27.819Z,21.51
2022-08-25T09:59:03.098Z,21.71
2022-08-25T10:01:36.558Z,21.83
2022-08-25T10:04:13.971Z,21.93
2022-08-25T10:06:50.955Z,22.13
2022-08-25T10:09:29.818Z,22.29
2022-08-25T10:12:01.168Z,22.35
2022-08-25T10:14:38.732Z,22.41
2022-08-25T10:17:29.415Z,22.58
2022-08-25T10:20:17.502Z,22.65
2022-08-25T10:22:50.623Z,22.86
2022-08-25T10:25:30.330Z,23.07
2022-08-25T10:28:11.016Z,23.28
2022-08-25T10:30:54.667Z,23.49
2022-08-25T10:33:34.060Z,23.55
2022-08-25T10:36:07.970Z,23.71
2022-08-25T10:38:43.330Z,23.79
2022-08-25T10:41:30.835Z,23.99
2022-08-25T10:44:29.144Z,23.82
2022-08-25T10:47:06.815Z,23.62
2022-08-25T10:49:42.301Z,23.87
2022-08-25T10:52:16.367Z,24.05
2022-08-25T10:54:51.496Z,24.29
2022-08-25T10:57:29.817Z,24.07
2022-08-25T11:00:04.082Z,24.25
2022-08-25T11:03:06.460Z,24.27
2022-08-25T11:05:42.782Z,24.35
2022-08-25T11:08:16.443Z,24.43
2022-08-25T11:10:50.507Z,24.39
2022-08-25T11:13:26.908Z,24.71
2022-08-25T11:16:18.689Z,24.63
2022-08-25T11:18:53.702Z,24.46
2022-08-25T11:21:31.011Z,24.18
2022-08-25T11:24:17.845Z,23.89
2022-08-25T11:26:51.381Z,23.84
2022-08-25T11:29:21.930Z,23.86
2022-08-25T11:31:53.974Z,24.13
2022-08-25T11:34:25.380Z,24.50
2022-08-25T11:37:07.826Z,24.87
2022-08-25T11:40:13.755Z,25.13
2022-08-25T11:42:52.695Z,25.07
2022-08-25T11:45:37.881Z,25.27
2022-08-25T11:48:17.610Z,25.44
2022-08-25T11:51:04.867Z,25.65
2022-08-25T11:53:38.320Z,25.67
2022-08-25T11:56:13.377Z,25.33
2022-08-25T11:58:46.299Z,24.97
2022-08-25T12:01:46.154Z,25.11
2022-08-25T12:04:17.411Z,25.33
2022-08-25T12:07:17.022Z,25.38
2022-08-25T12:10:18.666Z,25.34
2022-08-25T12:13:04.673Z,25.39
2022-08-25T12:15:38.026Z,25.23
2022-08-25T12:18:13.837Z,25.20
2022-08-25T12:21:12.518Z,25.21
2022-08-25T12:23:44.826Z,25.27
2022-08-25T12:26:24.033Z,25.70
2022-08-25T12:29:02.202Z,26.32
2022-08-25T12:32:04.907Z,26.55
2022-08-25T12:34:45.567Z,26.67
2022-08-25T12:37:16.943Z,26.99
2022-08-25T12:39:48.848Z,27.06
2022-08-25T12:42:31.322Z,26.80
2022-08-25T12:45:30.885Z,26.38
2022-08-25T12:48:35.360Z,26.76
2022-08-25T12:51:06.755Z,27.03
2022-08-25T12:53:38.941Z,27.57
2022-08-25T12:56:11.594Z,27.89
2022-08-25T12:59:00.246Z,27.53
2022-08-25T13:01:39.138Z,27.05
2022-08-25T13:04:39.003Z,26.63
2022-08-25T13:07:18.709Z,27.39
2022-08-25T13:10:11.384Z,28.10
2022-08-25T13:12:46.931Z,29.02
2022-08-25T13:15:38.333Z,28.98
2022-08-25T13:18:32.577Z,28.42
2022-08-25T13:21:07.994Z,28.01
2022-08-25T13:23:39.645Z,28.07
2022-08-25T13:26:09.654Z,27.68
2022-08-25T13:28:42.006Z,27.42
2022-08-25T13:31:19.116Z,27.05
2022-08-25T13:33:56.151Z,27.57
2022-08-25T13:36:41.307Z,28.41
2022-08-25T13:39:17.049Z,28.78
2022-08-25T13:41:56.097Z,28.93
2022-08-25T13:44:28.640Z,29.44
2022-08-25T13:47:12.590Z,29.20
2022-08-25T13:49:45.675Z,29.98
2022-08-25T13:52:21.971Z,30.00
2022-08-25T13:55:01.430Z,29.51
2022-08-25T13:57:34.676Z,29.26
2022-08-25T14:00:09.602Z,28.82
2022-08-25T14:02:49.619Z,28.37
2022-08-25T14:05:36.185Z,28.35
2022-08-25T14:08:23.524Z,28.35
2022-08-25T14:11:05.590Z,27.94
2022-08-25T14:13:35.873Z,27.72
2022-08-25T14:16:17.577Z,28.01
2022-08-25T14:18:53.933Z,28.11
2022-08-25T14:21:28.726Z,28.36
2022-08-25T14:23:59.294Z,28.12
2022-08-25T14:26:29.560Z,27.86
2022-08-25T14:29:00.105Z,28.00
2022-08-25T14:31:32.224Z,28.23
2022-08-25T14:34:06.534Z,28.15
2022-08-25T14:36:37.030Z,27.96
2022-08-25T14:39:08.731Z,28.08
2022-08-25T14:41:40.944Z,27.84
2022-08-25T14:44:12.359Z,27.46
2022-08-25T14:46:45.442Z,27.19
2022-08-25T14:49:24.947Z,27.07
2022-08-25T14:51:55.334Z,26.83
2022-08-25T14:54:27.645Z,26.86
2022-08-25T14:56:57.473Z,27.05
2022-08-25T14:59:27.859Z,27.28
2022-08-25T15:01:58.542Z,27.26
2022-08-25T15:04:32.028Z,27.31
2022-08-25T15:07:22.853Z,27.21
2022-08-25T15:09:50.703Z,27.06
2022-08-25T15:12:46.162Z,26.97
2022-08-25T15:15:12.611Z,26.75
2022-08-25T15:17:44.488Z,26.56
2022-08-25T15:20:17.188Z,26.49
2022-08-25T15:22:48.150Z,26.55
2022-08-25T15:25:18.282Z,26.54
2022-08-25T15:27:47.784Z,26.58
2022-08-25T15:30:18.466Z,26.49
2022-08-25T15:32:48.770Z,26.44
2022-08-25T15:35:21.110Z,26.34
2022-08-25T15:37:57.369Z,26.18
2022-08-25T15:40:27.277Z,26.19
2022-08-25T15:42:57.577Z,26.14
2022-08-25T15:45:28.322Z,26.13
2022-08-25T15:47:57.798Z,26.14
2022-08-25T15:50:29.886Z,26.18
2022-08-25T15:52:59.630Z,26.11
2022-08-25T15:55:29.151Z,26.12
2022-08-25T15:57:58.674Z,26.11
2022-08-25T16:00:28.211Z,26.14
2022-08-25T16:03:01.421Z,26.11
2022-08-25T16:05:34.886Z,26.13
2022-08-25T16:08:04.399Z,26.18
2022-08-25T16:10:36.269Z,26.12
2022-08-25T16:13:07.026Z,26.11
2022-08-25T16:15:38.959Z,26.09
2022-08-25T16:18:10.986Z,26.02
2022-08-25T16:20:46.934Z,25.99
2022-08-25T16:23:17.462Z,25.95
2022-08-25T16:25:48.207Z,25.99
2022-08-25T16:28:20.231Z,25.92
2022-08-25T16:30:52.999Z,25.87
2022-08-25T16:33:23.014Z,25.91
2022-08-25T16:35:55.210Z,25.87
2022-08-25T16:38:24.705Z,25.88
2022-08-25T16:40:55.205Z,25.86
2022-08-25T16:43:25.638Z,25.83
2022-08-25T16:46:00.437Z,25.71
2022-08-25T16:48:31.264Z,25.64
2022-08-25T16:51:03.538Z,25.51
2022-08-25T16:53:46.049Z,25.35
2022-08-25T16:56:18.423Z,25.31
2022-08-25T16:58:48.345Z,25.19
2022-08-25T17:01:21.898Z,25.15
2022-08-25T17:03:54.195Z,25.08
2022-08-25T17:06:29.435Z,25.02
2022-08-25T17:08:59.289Z,24.99
2022-08-25T17:11:30.615Z,24.91
2022-08-25T17:14:06.818Z,24.88
2022-08-25T17:16:40.902Z,24.73
2022-08-25T17:19:12.723Z,24.68
2022-08-25T17:21:47.646Z,24.59
2022-08-25T17:24:19.459Z,24.44
2022-08-25T17:26:50.211Z,24.41
2022-08-25T17:29:19.995Z,24.39
2022-08-25T17:31:51.114Z,24.37
2022-08-25T17:34:23.023Z,24.31
2022-08-25T17:36:56.036Z,24.26
2022-08-25T17:39:26.169Z,24.21
2022-08-25T17:41:56.015Z,24.16
2022-08-25T17:44:25.600Z,24.08
2022-08-25T17:46:55.246Z,24.01
2022-08-25T17:49:27.499Z,24.01
2022-08-25T17:51:59.665Z,23.93
2022-08-25T17:54:29.146Z,23.95
2022-08-25T17:56:59.260Z,23.83
2022-08-25T17:59:28.697Z,23.79
2022-08-25T18:02:02.295Z,23.71
2022-08-25T18:04:31.921Z,23.65
2022-08-25T18:07:04.062Z,23.58
2022-08-25T18:09:34.537Z,23.50
2022-08-25T18:12:04.020Z,23.42
2022-08-25T18:14:33.493Z,23.44
2022-08-25T18:17:03.792Z,23.35
2022-08-25T18:19:34.264Z,23.26
2022-08-25T18:22:06.798Z,23.20
2022-08-25T18:24:36.654Z,23.19
2022-08-25T18:27:06.497Z,23.13
2022-08-25T18:29:36.285Z,23.07
2022-08-25T18:32:07.105Z,22.97
2022-08-25T18:34:36.789Z,22.95
2022-08-25T18:37:21.169Z,22.93
2022-08-25T18:40:03.248Z,22.87
2022-08-25T18:42:32.809Z,22.79
2022-08-25T18:45:03.598Z,22.66
2022-08-25T18:47:33.418Z,22.65
2022-08-25T18:50:04.637Z,22.59
2022-08-25T18:52:37.542Z,22.55
2022-08-25T18:55:07.857Z,22.48
2022-08-25T18:57:41.556Z,22.38
2022-08-25T19:00:15.863Z,22.30
2022-08-25T19:02:47.914Z,22.21
2022-08-25T19:05:18.770Z,22.16
2022-08-25T19:07:52.037Z,22.11
2022-08-25T19:10:23.954Z,22.05
2022-08-25T19:12:54.549Z,22.04
2022-08-25T19:15:26.877Z,22.06
2022-08-25T19:17:56.795Z,22.06
2022-08-25T19:20:29.626Z,21.98
2022-08-25T19:23:02.084Z,21.92
2022-08-25T19:25:34.736Z,21.92
2022-08-25T19:28:05.484Z,21.87
2022-08-25T19:30:35.974Z,21.81
2022-08-25T19:33:11.506Z,21.78
2022-08-25T19:35:50.306Z,21.74
2022-08-25T19:38:34.129Z,21.68
2022-08-25T19:41:09.377Z,21.63
2022-08-25T19:43:50.547Z,21.55
2022-08-25T19:46:33.108Z,21.48
2022-08-25T19:49:07.922Z,21.47
2022-08-25T19:51:43.874Z,21.41
2022-08-25T19:54:17.982Z,21.41
2022-08-25T19:56:54.503Z,21.36
2022-08-25T19:59:26.745Z,21.32
2022-08-25T20:02:07.500Z,21.28
2022-08-25T20:04:36.993Z,21.20
2022-08-25T20:07:06.657Z,21.18
2022-08-25T20:09:40.949Z,21.14
2022-08-25T20:12:11.866Z,21.13
2022-08-25T20:14:41.983Z,21.09
2022-08-25T20:17:14.652Z,21.08
2022-08-25T20:19:55.462Z,21.00
2022-08-25T20:22:26.924Z,20.97
2022-08-25T20:25:03.162Z,20.90
2022-08-25T20:27:40.985Z,20.86
2022-08-25T20:30:13.592Z,20.84
2022-08-25T20:32:43.482Z,20.84
2022-08-25T20:35:16.559Z,20.82
2022-08-25T20:37:47.605Z,20.82
2022-08-25T20:40:25.491Z,20.83
2022-08-25T20:42:55.750Z,20.82
2022-08-25T20:45:25.850Z,20.78
2022-08-25T20:47:55.733Z,20.74
2022-08-25T20:50:25.654Z,20.69
2022-08-25T20:52:58.385Z,20.63
2022-08-25T20:55:32.145Z,20.59
2022-08-25T20:58:09.938Z,20.57
2022-08-25T21:00:39.887Z,20.51
2022-08-25T21:03:09.364Z,20.49
2022-08-25T21:05:41.997Z,20.46
2022-08-25T21:08:11.733Z,20.35
2022-08-25T21:10:44.001Z,20.34
2022-08-25T21:13:13.463Z,20.33
2022-08-25T21:15:48.466Z,20.29
2022-08-25T21:18:18.218Z,20.31
2022-08-25T21:20:47.781Z,20.30
2022-08-25T21:23:17.284Z,20.27
2022-08-25T21:25:49.670Z,20.20
2022-08-25T21:28:19.668Z,20.18
2022-08-25T21:30:50.803Z,20.17
2022-08-25T21:33:26.253Z,20.15
2022-08-25T21:35:58.034Z,20.08
2022-08-25T21:38:28.646Z,20.13
2022-08-25T21:41:01.634Z,20.12
2022-08-25T21:43:32.001Z,20.11
2022-08-25T21:46:01.574Z,20.10
2022-08-25T21:48:31.126Z,20.10
2022-08-25T21:51:06.988Z,20.11
2022-08-25T21:53:38.925Z,20.12
2022-08-25T21:56:15.962Z,20.12
2022-08-25T21:58:49.072Z,20.09
2022-08-25T22:01:22.476Z,20.05
2022-08-25T22:03:52.651Z,20.04
2022-08-25T22:06:23.239Z,20.03
2022-08-25T22:08:53.094Z,20.06
2022-08-25T22:11:26.442Z,20.06
2022-08-25T22:13:56.490Z,20.07
2022-08-25T22:16:27.076Z,20.02
2022-08-25T22:18:59.520Z,20.03
2022-08-25T22:21:31.984Z,20.03
2022-08-25T22:24:01.907Z,20.00
2022-08-25T22:26:36.770Z,20.00
2022-08-25T22:29:07.636Z,19.98
2022-08-25T22:31:37.577Z,19.98
2022-08-25T22:34:07.449Z,20.04
2022-08-25T22:36:39.574Z,20.05
2022-08-25T22:39:10.909Z,20.03
2022-08-25T22:41:45.494Z,20.05
2022-08-25T22:44:15.182Z,20.03
2022-08-25T22:46:45.274Z,20.03
2022-08-25T22:49:14.829Z,20.01
2022-08-25T22:51:44.353Z,19.97
2022-08-25T22:54:16.869Z,19.94
2022-08-25T22:56:49.008Z,19.95
2022-08-25T22:59:18.597Z,19.95
2022-08-25T23:01:48.422Z,19.92
2022-08-25T23:04:18.037Z,19.90
2022-08-25T23:06:49.075Z,19.87
2022-08-25T23:09:18.944Z,19.89
2022-08-25T23:11:51.494Z,19.91
2022-08-25T23:14:21.791Z,19.93
2022-08-25T23:16:51.648Z,19.92
2022-08-25T23:19:21.642Z,19.89
2022-08-25T23:22:10.403Z,19.87
2022-08-25T23:24:42.819Z,19.84
2022-08-25T23:27:17.479Z,19.86
2022-08-25T23:29:50.025Z,19.80
2022-08-25T23:32:20.666Z,19.80
2022-08-25T23:34:50.173Z,19.79
2022-08-25T23:37:19.710Z,19.79
2022-08-25T23:39:49.949Z,19.78
2022-08-25T23:42:22.724Z,19.79
2022-08-25T23:44:53.399Z,19.81
2022-08-25T23:47:22.890Z,19.81
2022-08-25T23:49:52.417Z,19.81
2022-08-25T23:52:21.919Z,19.84
2022-08-25T23:54:51.444Z,19.82
2022-08-25T23:57:23.470Z,19.79
2022-08-25T23:59:53.430Z,19.75
